Rosemont, IL

10:44 AM CDT on September 05, 2015 (GMT -0500)
Des Plaines River Rd. | | Change Station
CLOSE
Current Station
Personal Weather Station
Location: Des Plaines, IL
Elevation: 656 ft
Nearby Weather Stations

Elev 656 ft 42.01 °N, 87.87 °W | Updated 8 minutes ago

Mostly Cloudy
Mostly Cloudy
76.5 °F
Feels Like 78 °F
N
3.7
Wind Variable Wind from South

Today
High -- | Low -- °F
--% Chance of Precip.
Yesterday
High -- | Low -- °F
Precip. -- in
6:21 AM 7:18 PM
Waning Gibbous, 47% visible
Pressure 30.10 in
Visibility 10.0 miles
Clouds Scattered Clouds 6500 ft
Mostly Cloudy 14000 ft
Mostly Cloudy 25000 ft
Heat Index 78 °F
Dew Point 66 °F
Humidity 70%
Rainfall 0.00 in
Snow Depth Not available.
UV 2 out of 12
Pollen 4.20 out of 12
Air Quality Not available.
Flu Activity Not available.
METAR KORD 051451Z 21005KT 10SM SCT065 BKN140 BKN250 24/19 A3011 RMK AO2 SLP192 T02390194 53013
Pressure 30.10 in
Visibility 10.0 miles
Clouds Scattered Clouds 6500 ft
Mostly Cloudy 14000 ft
Mostly Cloudy 25000 ft
Heat Index 78 °F
Dew Point 66 °F
Humidity 70%
Rainfall 0.00 in
Snow Depth Not available.
UV 2 out of 12
Pollen 4.20 out of 12
Air Quality Not available.
Flu Activity Not available.
METAR KORD 051451Z 21005KT 10SM SCT065 BKN140 BKN250 24/19 A3011 RMK AO2 SLP192 T02390194 53013

10-Day Weather Forecast

×

Almanac

Astronomy

Sep. 05, 2015 Rise Set
Actual Time
Civil Twilight
Nautical Twilight
Astronomical Twilight
Moon
Length of Visible Light
Length of Day
Tomorrow will be .
, % of the Moon is Illuminated

Today's Extremes

State Highs State Lows

Community

WunderPhotos

Upload Photos

1,852,483 photos uploaded!

WunderBlogs® & News

Nearby

Air Quality

  Air Quality AQ Index Pollutant
Not available.

Snow Depth

Station Depth Elevation

Earthquake Activity

City Distance Mag. Time & Date
Minimum magnitude displayed is 2.5.

Coastal Water Temperatures

Place Temperature

Stations

Nearby Weather Stations

Station Location Temp. Windchill Dew Point Humidity Wind Precip. Elev Updated Type